Time;durP1;ratioP1;P1;durP2;ratioP2;P2;SDS_P1;SDS_P2;PMS_P1;PMS_P2;Temp;Humidity;BMP_temperature;BMP_pressure;BME280_temperature;BME280_humidity;BME280_pressure;Samples;Min_cycle;Max_cycle;Signal;HPM_P1;HPM_P2
2023/06/23 00:00:28;;;;;;;19.90;13.00;;;16.70;99.90;;;;;;5065964;28;20040;-64
2023/06/23 00:02:54;;;;;;;17.25;12.15;;;16.90;99.90;;;;;;5070384;28;20039;-64
2023/06/23 00:05:20;;;;;;;15.82;11.40;;;16.90;99.90;;;;;;5069861;28;20058;-63
2023/06/23 00:07:46;;;;;;;20.90;12.70;;;16.70;99.90;;;;;;5070630;28;20364;-63
2023/06/23 00:10:11;;;;;;;17.25;11.98;;;16.80;99.90;;;;;;5065004;28;20036;-63
2023/06/23 00:12:41;;;;;;;16.42;12.13;;;16.80;99.90;;;;;;5072607;28;20037;-63
2023/06/23 00:15:07;;;;;;;16.48;12.10;;;16.70;99.90;;;;;;5072204;28;20040;-61
2023/06/23 00:17:34;;;;;;;16.25;11.38;;;17.00;99.90;;;;;;5069695;28;20590;-63
2023/06/23 00:19:59;;;;;;;14.43;11.45;;;17.00;99.90;;;;;;5073525;27;20029;-63
2023/06/23 00:22:27;;;;;;;13.75;11.45;;;17.00;99.90;;;;;;5069176;28;20117;-63
2023/06/23 00:24:53;;;;;;;17.90;12.20;;;16.80;99.90;;;;;;5071734;28;20041;-63
2023/06/23 00:27:19;;;;;;;14.75;11.85;;;16.80;99.90;;;;;;5066346;28;20039;-63
2023/06/23 00:29:45;;;;;;;15.20;11.32;;;16.90;99.90;;;;;;5071746;28;20036;-63
2023/06/23 00:32:11;;;;;;;20.77;11.90;;;16.80;99.90;;;;;;5065524;28;20037;-63
2023/06/23 00:34:36;;;;;;;17.50;12.13;;;16.80;99.90;;;;;;5057116;28;20035;-63
2023/06/23 00:37:02;;;;;;;16.30;10.82;;;17.00;99.90;;;;;;5069410;28;20078;-62
2023/06/23 00:39:27;;;;;;;17.33;11.32;;;16.10;99.90;;;;;;5064148;28;20035;-63
2023/06/23 00:41:53;;;;;;;14.45;10.75;;;16.90;99.90;;;;;;5069470;28;20480;-63
2023/06/23 00:44:19;;;;;;;19.15;11.27;;;16.80;99.90;;;;;;5062913;28;20817;-64
2023/06/23 00:46:45;;;;;;;15.13;10.32;;;16.80;99.90;;;;;;5067220;28;20108;-63
2023/06/23 00:49:14;;;;;;;17.98;10.07;;;16.80;99.90;;;;;;5063262;28;20039;-63
2023/06/23 00:51:40;;;;;;;13.73;9.63;;;16.80;99.90;;;;;;5061320;28;20024;-63
2023/06/23 00:54:07;;;;;;;12.68;10.10;;;16.80;99.90;;;;;;5060071;28;20040;-62
2023/06/23 00:56:33;;;;;;;16.65;10.20;;;16.80;99.90;;;;;;5060485;28;20049;-63
2023/06/23 00:58:59;;;;;;;15.88;9.95;;;16.90;99.90;;;;;;5064075;28;20033;-63
2023/06/23 01:01:25;;;;;;;13.45;9.70;;;16.80;99.90;;;;;;5065216;28;20037;-63
2023/06/23 01:03:51;;;;;;;13.65;9.35;;;16.80;99.90;;;;;;5063246;28;20036;-63
2023/06/23 01:06:37;;;;;;;16.13;9.75;;;16.80;99.90;;;;;;5063170;28;20400;-63
2023/06/23 01:09:20;;;;;;;17.42;10.13;;;16.80;99.90;;;;;;5061288;28;20589;-62
2023/06/23 01:11:59;;;;;;;18.88;10.75;;;16.80;99.90;;;;;;5064875;28;20028;-63
2023/06/23 01:14:34;;;;;;;17.08;10.10;;;16.80;99.90;;;;;;5067148;28;20357;-63
2023/06/23 01:17:15;;;;;;;16.95;10.77;;;16.70;99.90;;;;;;5067501;28;20029;-63
2023/06/23 01:20:21;;;;;;;16.50;10.85;;;16.70;99.90;;;;;;5066829;28;20028;-63
2023/06/23 01:23:17;;;;;;;17.02;11.68;;;17.00;99.90;;;;;;5064634;28;20495;-63
2023/06/23 01:26:01;;;;;;;21.65;11.57;;;16.90;99.90;;;;;;5058233;28;20137;-63
2023/06/23 01:28:39;;;;;;;16.23;9.80;;;16.90;99.90;;;;;;5065063;28;20025;-62
2023/06/23 01:31:09;;;;;;;16.00;11.10;;;16.60;99.90;;;;;;5066910;28;20032;-62
2023/06/23 01:33:52;;;;;;;20.67;10.50;;;16.60;99.90;;;;;;5066078;28;20051;-63
2023/06/23 01:36:26;;;;;;;15.77;10.18;;;16.80;99.90;;;;;;5056704;28;20115;-62
2023/06/23 01:38:54;;;;;;;;;;;16.80;99.90;;;;;;5065573;28;20412;-63
2023/06/23 01:41:26;;;;;;;15.88;9.38;;;17.20;99.90;;;;;;5063965;28;19909;-63
2023/06/23 01:43:55;;;;;;;12.75;8.90;;;16.90;99.90;;;;;;5065167;28;20339;-63
2023/06/23 01:46:25;;;;;;;12.88;9.43;;;16.90;99.90;;;;;;5069614;28;20111;-62
2023/06/23 01:48:56;;;;;;;13.07;9.52;;;16.90;99.90;;;;;;5062075;28;20033;-63
2023/06/23 01:51:24;;;;;;;15.75;9.00;;;16.70;99.90;;;;;;5064207;28;20385;-63
2023/06/23 01:53:51;;;;;;;9.60;8.35;;;17.00;99.90;;;;;;5061795;28;20479;-63
2023/06/23 01:56:19;;;;;;;12.05;8.57;;;17.10;99.90;;;;;;5066915;28;20128;-63
2023/06/23 01:58:46;;;;;;;13.75;8.38;;;17.30;99.90;;;;;;5065013;28;20273;-63
2023/06/23 02:01:13;;;;;;;18.13;9.50;;;16.30;99.90;;;;;;5062922;28;20040;-62
2023/06/23 02:03:40;;;;;;;11.27;8.10;;;17.10;99.90;;;;;;5066806;28;20093;-62
2023/06/23 02:06:07;;;;;;;16.17;9.98;;;17.70;99.90;;;;;;5063601;28;20480;-62
2023/06/23 02:08:34;;;;;;;13.27;9.68;;;16.60;99.90;;;;;;5062122;28;20492;-63
2023/06/23 02:11:01;;;;;;;17.55;9.82;;;17.20;99.90;;;;;;5064509;28;20492;-63
2023/06/23 02:13:29;;;;;;;20.13;10.63;;;17.10;99.90;;;;;;5061336;28;20032;-63
2023/06/23 02:15:56;;;;;;;16.88;10.13;;;17.10;99.90;;;;;;5063861;28;20064;-63
2023/06/23 02:18:24;;;;;;;17.10;10.38;;;17.00;99.90;;;;;;5063185;28;20093;-62
2023/06/23 02:20:52;;;;;;;18.58;11.07;;;17.10;99.90;;;;;;5058589;28;20064;-63
2023/06/23 02:23:19;;;;;;;19.35;11.52;;;16.40;99.90;;;;;;5065251;28;20055;-62
2023/06/23 02:25:45;;;;;;;15.38;11.50;;;17.20;99.90;;;;;;5070230;28;20528;-63
2023/06/23 02:28:12;;;;;;;15.45;11.60;;;17.00;99.90;;;;;;5069926;28;20090;-62
2023/06/23 02:30:43;;;;;;;15.63;11.52;;;17.10;99.90;;;;;;5070705;28;20029;-63
2023/06/23 02:33:08;;;;;;;14.52;10.88;;;17.10;99.90;;;;;;5059519;28;20032;-62
2023/06/23 02:35:34;;;;;;;17.95;12.15;;;17.20;99.90;;;;;;5065021;28;20362;-62
2023/06/23 02:38:07;;;;;;;20.25;12.85;;;17.00;99.90;;;;;;5064311;28;20073;-63
2023/06/23 02:40:35;;;;;;;19.63;12.30;;;17.00;99.90;;;;;;5067406;28;20112;-63
2023/06/23 02:43:14;;;;;;;21.45;12.65;;;17.00;99.90;;;;;;5070257;28;20043;-63
2023/06/23 02:45:43;;;;;;;18.77;12.90;;;17.10;99.90;;;;;;5063775;28;20041;-63
2023/06/23 02:48:15;;;;;;;19.05;13.77;;;16.90;99.90;;;;;;5068914;28;20032;-62
2023/06/23 02:50:42;;;;;;;18.58;13.73;;;17.10;99.90;;;;;;5068282;28;20118;-63
2023/06/23 02:53:11;;;;;;;19.92;13.48;;;17.00;99.90;;;;;;5072109;28;20828;-62
2023/06/23 02:55:40;;;;;;;20.50;15.05;;;16.90;99.90;;;;;;5066696;28;20097;-63
2023/06/23 02:58:13;;;;;;;20.48;15.25;;;16.90;99.90;;;;;;5069556;28;20028;-62
2023/06/23 03:00:38;;;;;;;23.42;15.15;;;17.00;99.90;;;;;;5065251;28;20040;-63
2023/06/23 03:03:12;;;;;;;25.02;15.48;;;17.10;99.90;;;;;;5070993;28;20336;-63
2023/06/23 03:05:38;;;;;;;23.27;16.20;;;17.10;99.90;;;;;;5066080;28;20038;-63
2023/06/23 03:08:05;;;;;;;24.45;16.25;;;17.00;99.90;;;;;;5067680;28;20028;-62
2023/06/23 03:10:31;;;;;;;19.67;15.48;;;17.00;99.90;;;;;;5071367;28;20044;-63
2023/06/23 03:12:56;;;;;;;26.98;17.13;;;16.90;99.90;;;;;;5061994;28;20037;-63
2023/06/23 03:15:22;;;;;;;23.40;16.40;;;16.90;99.90;;;;;;5070722;28;20112;-63
2023/06/23 03:17:52;;;;;;;23.60;17.52;;;16.90;99.90;;;;;;5069754;28;20167;-63
2023/06/23 03:20:30;;;;;;;22.05;17.00;;;16.90;99.90;;;;;;5069415;28;20441;-63
2023/06/23 03:23:08;;;;;;;24.80;16.70;;;17.00;99.90;;;;;;5065647;28;20037;-63
2023/06/23 03:25:37;;;;;;;23.67;17.10;;;17.00;99.90;;;;;;5072516;28;20029;-62
2023/06/23 03:28:08;;;;;;;27.35;16.80;;;16.70;99.90;;;;;;5069896;28;20165;-62
2023/06/23 03:30:39;;;;;;;26.98;16.92;;;16.50;99.90;;;;;;5077156;28;20461;-63
2023/06/23 03:33:12;;;;;;;21.13;17.10;;;16.70;99.90;;;;;;5066476;28;20029;-62
2023/06/23 03:35:40;;;;;;;;;;;16.70;99.90;;;;;;5090867;28;20435;-63
2023/06/23 03:38:10;;;;;;;23.90;17.05;;;17.10;99.90;;;;;;5062514;28;19909;-63
2023/06/23 03:41:07;;;;;;;25.20;17.25;;;17.10;99.90;;;;;;5051120;28;20135;-62
2023/06/23 03:43:50;;;;;;;27.98;17.73;;;17.00;99.90;;;;;;5068947;28;20040;-63
2023/06/23 03:46:23;;;;;;;23.77;17.93;;;16.80;99.90;;;;;;5065319;28;20039;-62
2023/06/23 03:48:54;;;;;;;23.30;17.05;;;16.70;99.90;;;;;;5073604;28;20035;-63
2023/06/23 03:51:21;;;;;;;26.35;17.73;;;16.80;99.90;;;;;;5067931;28;20099;-62
2023/06/23 03:53:50;;;;;;;25.98;18.40;;;16.70;99.90;;;;;;5074237;28;20025;-63
2023/06/23 03:56:16;;;;;;;26.15;18.83;;;16.90;99.90;;;;;;5066886;28;20124;-62
2023/06/23 03:58:45;;;;;;;27.17;18.85;;;16.80;99.90;;;;;;5063878;28;20628;-63
2023/06/23 04:01:12;;;;;;;27.17;19.05;;;16.60;99.90;;;;;;5065633;28;20261;-63
2023/06/23 04:03:40;;;;;;;26.73;18.30;;;16.50;99.90;;;;;;5071550;28;20059;-62
2023/06/23 04:06:08;;;;;;;29.63;19.42;;;16.50;99.90;;;;;;5066547;28;20038;-62
2023/06/23 04:08:36;;;;;;;27.90;19.77;;;16.60;99.90;;;;;;5067142;28;20098;-62
2023/06/23 04:11:03;;;;;;;28.23;20.77;;;16.50;99.90;;;;;;5068749;28;20056;-58
2023/06/23 04:13:31;;;;;;;29.23;20.73;;;16.60;99.90;;;;;;5065483;28;20206;-63
2023/06/23 04:15:58;;;;;;;29.20;21.25;;;16.70;99.90;;;;;;5060386;28;20056;-62
2023/06/23 04:18:26;;;;;;;27.70;21.88;;;16.60;99.90;;;;;;5062694;28;20036;-62
2023/06/23 04:20:55;;;;;;;29.88;22.35;;;16.60;99.90;;;;;;5066189;28;20028;-63
2023/06/23 04:23:22;;;;;;;30.27;22.67;;;16.60;99.90;;;;;;5063562;28;20080;-62
2023/06/23 04:25:50;;;;;;;33.40;23.60;;;16.80;99.90;;;;;;5064867;28;20039;-63
2023/06/23 04:28:22;;;;;;;32.58;22.55;;;16.80;99.90;;;;;;5066079;28;20083;-62
2023/06/23 04:30:48;;;;;;;32.90;24.08;;;16.70;99.90;;;;;;5063159;28;20040;-62
2023/06/23 04:33:14;;;;;;;31.08;22.88;;;16.60;99.90;;;;;;5061906;28;20079;-63
2023/06/23 04:35:39;;;;;;;38.13;23.13;;;16.70;99.90;;;;;;5063203;28;20114;-62
2023/06/23 04:38:12;;;;;;;29.15;21.75;;;16.70;99.90;;;;;;5065171;28;20028;-62
2023/06/23 04:40:45;;;;;;;29.92;22.73;;;16.50;99.90;;;;;;5063129;28;20032;-62
2023/06/23 04:43:19;;;;;;;31.30;22.77;;;16.50;99.90;;;;;;5064176;28;20461;-62
2023/06/23 04:45:58;;;;;;;32.83;23.17;;;16.70;99.90;;;;;;5061546;28;20044;-63
2023/06/23 04:48:29;;;;;;;29.50;23.92;;;16.70;99.90;;;;;;5061522;28;20040;-63
2023/06/23 04:50:58;;;;;;;34.50;25.08;;;16.70;99.90;;;;;;5063743;28;20366;-63
2023/06/23 04:53:32;;;;;;;34.80;24.80;;;16.90;99.90;;;;;;5065642;28;20036;-63
2023/06/23 04:56:02;;;;;;;33.83;25.05;;;16.90;99.90;;;;;;5065339;28;20484;-63
2023/06/23 04:58:32;;;;;;;32.20;24.77;;;16.90;99.90;;;;;;5066182;28;20380;-63
2023/06/23 05:00:59;;;;;;;35.92;25.33;;;17.10;99.90;;;;;;5065804;28;20153;-63
2023/06/23 05:03:27;;;;;;;33.35;25.23;;;17.10;99.90;;;;;;5064114;28;20040;-63
2023/06/23 05:05:55;;;;;;;34.17;24.88;;;17.20;99.90;;;;;;5060630;28;20040;-62
2023/06/23 05:08:25;;;;;;;30.48;23.98;;;17.00;99.90;;;;;;5063933;28;20035;-62
2023/06/23 05:10:52;;;;;;;35.03;25.02;;;17.40;99.90;;;;;;5063674;28;20512;-62
2023/06/23 05:13:19;;;;;;;37.53;26.83;;;17.10;99.90;;;;;;5066666;28;20450;-62
2023/06/23 05:15:47;;;;;;;33.65;25.98;;;17.30;99.90;;;;;;5070953;28;20028;-63
2023/06/23 05:18:16;;;;;;;35.55;26.40;;;17.30;99.90;;;;;;5065281;28;20531;-64
2023/06/23 05:20:42;;;;;;;33.78;25.67;;;17.60;99.90;;;;;;5061901;28;20511;-64
2023/06/23 05:23:12;;;;;;;33.72;25.83;;;17.60;99.90;;;;;;5061463;28;20043;-63
2023/06/23 05:25:38;;;;;;;33.47;25.67;;;17.70;99.90;;;;;;5066804;28;20053;-63
2023/06/23 05:28:05;;;;;;;33.97;25.83;;;17.80;99.90;;;;;;5063221;28;20035;-62
2023/06/23 05:30:34;;;;;;;37.70;25.98;;;17.60;99.90;;;;;;5066574;28;20028;-63
2023/06/23 05:33:01;;;;;;;40.60;25.45;;;17.30;99.90;;;;;;5066094;28;20036;-64
2023/06/23 05:35:31;;;;;;;34.95;25.17;;;17.30;99.90;;;;;;5066922;28;20036;-62
2023/06/23 05:37:59;;;;;;;41.17;27.10;;;17.60;99.90;;;;;;5062738;28;20047;-63
2023/06/23 05:40:25;;;;;;;40.60;28.45;;;17.70;99.90;;;;;;5062803;28;20032;-63
2023/06/23 05:42:51;;;;;;;45.53;29.83;;;17.90;99.90;;;;;;5064876;28;20041;-63
2023/06/23 05:45:17;;;;;;;39.80;29.52;;;17.60;99.90;;;;;;5059300;28;20045;-64
2023/06/23 05:47:54;;;;;;;38.13;28.63;;;17.80;99.90;;;;;;5053353;28;20484;-63
2023/06/23 05:50:33;;;;;;;37.88;28.92;;;17.80;99.90;;;;;;5062034;28;20043;-63
2023/06/23 05:53:07;;;;;;;43.60;30.25;;;17.70;99.90;;;;;;5059171;28;20021;-63
2023/06/23 05:55:54;;;;;;;43.13;29.48;;;17.70;99.90;;;;;;5061515;28;20114;-63
2023/06/23 05:58:26;;;;;;;42.22;29.88;;;17.60;99.90;;;;;;5063406;28;20519;-62
2023/06/23 06:00:54;;;;;;;44.95;31.45;;;17.60;99.90;;;;;;5062268;28;20468;-57
2023/06/23 06:03:24;;;;;;;43.03;29.98;;;17.80;99.90;;;;;;5065644;28;20047;-57
2023/06/23 06:05:59;;;;;;;43.83;30.65;;;17.50;99.90;;;;;;5069421;28;20123;-57
2023/06/23 06:08:26;;;;;;;43.08;30.60;;;17.50;99.90;;;;;;5069686;28;20069;-57
2023/06/23 06:10:54;;;;;;;39.42;29.65;;;17.40;99.90;;;;;;5067004;28;20031;-57
2023/06/23 06:13:22;;;;;;;44.65;29.20;;;17.50;99.90;;;;;;5064019;28;20528;-57
2023/06/23 06:15:51;;;;;;;42.22;30.23;;;17.50;99.90;;;;;;5065469;28;20047;-57
2023/06/23 06:18:18;;;;;;;42.63;31.23;;;17.70;99.90;;;;;;5066005;28;20446;-57
2023/06/23 06:20:45;;;;;;;39.35;30.08;;;17.80;99.90;;;;;;5064211;28;20592;-57
2023/06/23 06:23:13;;;;;;;37.05;27.45;;;17.90;99.90;;;;;;5065784;28;20071;-58
2023/06/23 06:25:41;;;;;;;38.40;29.52;;;17.80;99.90;;;;;;5063162;28;20067;-58
2023/06/23 06:28:12;;;;;;;40.70;28.80;;;18.20;99.90;;;;;;5064789;28;20451;-57
2023/06/23 06:30:39;;;;;;;37.85;28.52;;;18.40;99.90;;;;;;5052888;28;20472;-57
2023/06/23 06:33:06;;;;;;;33.88;25.30;;;18.40;99.90;;;;;;5056967;28;20036;-57
2023/06/23 06:35:34;;;;;;;32.38;25.52;;;18.50;99.90;;;;;;5061408;28;20028;-58
2023/06/23 06:38:01;;;;;;;33.42;26.27;;;18.50;99.90;;;;;;5066339;28;20433;-57
2023/06/23 06:40:28;;;;;;;31.13;23.83;;;18.60;99.90;;;;;;5057451;28;20068;-57
2023/06/23 06:42:54;;;;;;;38.05;25.08;;;18.60;99.90;;;;;;5061437;28;20588;-57
2023/06/23 06:45:19;;;;;;;33.72;25.05;;;18.70;99.90;;;;;;5056377;28;20143;-57
2023/06/23 06:47:48;;;;;;;33.15;25.13;;;18.80;99.90;;;;;;5055495;28;20114;-57
2023/06/23 06:50:15;;;;;;;33.13;25.40;;;18.70;99.90;;;;;;5058852;28;20040;-57
2023/06/23 06:52:43;;;;;;;32.25;24.33;;;18.90;99.90;;;;;;5063348;28;20039;-57
2023/06/23 06:55:15;;;;;;;33.08;24.05;;;18.70;99.90;;;;;;5067283;28;20032;-57
2023/06/23 06:57:41;;;;;;;34.25;26.02;;;18.70;99.90;;;;;;5065807;28;20362;-57
2023/06/23 07:00:09;;;;;;;36.17;25.20;;;18.90;99.90;;;;;;5067026;28;20526;-57
2023/06/23 07:02:37;;;;;;;33.90;24.75;;;19.00;99.90;;;;;;5062135;28;20063;-57
2023/06/23 07:05:04;;;;;;;30.73;23.50;;;19.00;99.90;;;;;;5057826;28;20586;-58
2023/06/23 07:07:30;;;;;;;31.65;24.20;;;19.20;99.90;;;;;;5063179;28;20036;-57
2023/06/23 07:09:56;;;;;;;29.10;21.90;;;19.20;99.90;;;;;;5065871;28;20063;-57
2023/06/23 07:12:23;;;;;;;31.27;22.50;;;19.10;99.90;;;;;;5069578;28;20484;-59
2023/06/23 07:14:49;;;;;;;27.90;21.30;;;19.30;99.90;;;;;;5067675;28;20052;-57
2023/06/23 07:17:14;;;;;;;28.40;20.15;;;19.40;99.90;;;;;;5072791;28;20064;-57
2023/06/23 07:19:40;;;;;;;30.20;21.27;;;19.40;99.90;;;;;;5066615;28;20236;-57
2023/06/23 07:22:06;;;;;;;26.17;20.55;;;19.40;99.90;;;;;;5063979;28;20422;-57
2023/06/23 07:24:32;;;;;;;23.77;18.38;;;19.60;99.90;;;;;;5071327;28;20024;-56
2023/06/23 07:26:58;;;;;;;35.90;27.85;;;19.60;99.90;;;;;;5071087;28;20067;-57
2023/06/23 07:29:23;;;;;;;27.05;19.02;;;20.90;99.90;;;;;;5066909;28;20055;-57
2023/06/23 07:31:49;;;;;;;22.95;17.73;;;19.80;99.90;;;;;;5066414;28;20052;-57
2023/06/23 07:34:14;;;;;;;23.00;16.20;;;19.90;99.90;;;;;;5070045;28;20056;-57
2023/06/23 07:36:40;;;;;;;24.08;17.08;;;19.80;99.90;;;;;;5068789;28;20024;-57
2023/06/23 07:39:08;;;;;;;21.20;16.70;;;19.70;99.90;;;;;;5066081;28;20029;-57
2023/06/23 07:41:34;;;;;;;17.63;13.73;;;19.90;99.90;;;;;;5067452;28;20029;-57
2023/06/23 07:43:59;;;;;;;19.50;14.20;;;19.90;99.90;;;;;;5067317;28;20044;-57
2023/06/23 07:46:25;;;;;;;18.55;13.07;;;20.00;99.90;;;;;;5064608;28;20032;-57
2023/06/23 07:48:50;;;;;;;17.38;13.10;;;19.90;99.90;;;;;;5066593;28;20100;-57
2023/06/23 07:51:16;;;;;;;18.58;13.52;;;20.00;99.90;;;;;;5065932;28;20393;-57
2023/06/23 07:53:42;;;;;;;18.65;13.35;;;20.10;99.90;;;;;;5067961;28;20127;-57
2023/06/23 07:56:10;;;;;;;14.57;11.25;;;20.30;99.90;;;;;;5061609;28;20044;-57
2023/06/23 07:58:36;;;;;;;16.35;13.05;;;20.50;99.90;;;;;;5065505;28;20399;-56
2023/06/23 08:01:02;;;;;;;20.23;12.43;;;20.60;99.90;;;;;;5060967;28;20028;-56
2023/06/23 08:03:28;;;;;;;17.73;13.98;;;20.60;99.90;;;;;;5065319;28;20043;-57
2023/06/23 08:05:53;;;;;;;16.92;13.27;;;20.60;99.90;;;;;;5059098;28;20033;-57
2023/06/23 08:08:19;;;;;;;17.67;14.15;;;20.60;99.90;;;;;;5063679;28;20727;-57
2023/06/23 08:10:45;;;;;;;38.63;31.35;;;20.50;99.90;;;;;;5064058;28;20380;-57
2023/06/23 08:13:10;;;;;;;22.90;15.02;;;20.60;99.90;;;;;;5058899;28;20175;-57
2023/06/23 08:15:36;;;;;;;16.15;13.07;;;20.80;99.90;;;;;;5064829;28;20512;-57
2023/06/23 08:18:02;;;;;;;18.33;12.80;;;20.90;99.90;;;;;;5064211;28;20257;-55
2023/06/23 08:20:28;;;;;;;24.33;13.15;;;20.90;99.90;;;;;;5065725;28;20035;-57
2023/06/23 08:22:54;;;;;;;15.50;12.68;;;21.00;99.90;;;;;;5067728;28;20028;-57
2023/06/23 08:25:20;;;;;;;17.30;12.50;;;20.90;99.90;;;;;;5064062;28;20560;-56
2023/06/23 08:27:45;;;;;;;17.77;12.15;;;21.00;99.90;;;;;;5068753;28;20135;-57
2023/06/23 08:30:11;;;;;;;13.95;11.10;;;21.10;99.90;;;;;;5059725;28;20044;-57
2023/06/23 08:32:37;;;;;;;15.15;12.10;;;21.10;99.90;;;;;;5065534;28;20102;-57
2023/06/23 08:35:03;;;;;;;15.30;11.98;;;21.00;99.90;;;;;;5064548;28;20029;-56
2023/06/23 08:37:28;;;;;;;16.40;10.93;;;21.40;99.90;;;;;;5066940;28;20037;-56
2023/06/23 08:39:54;;;;;;;14.25;11.15;;;21.30;99.90;;;;;;5063054;28;20439;-59
2023/06/23 08:42:21;;;;;;;13.70;10.80;;;21.40;99.90;;;;;;5066989;28;20044;-58
2023/06/23 08:44:49;;;;;;;13.90;10.27;;;21.40;99.90;;;;;;5066295;28;20024;-57
2023/06/23 08:47:18;;;;;;;14.70;10.13;;;21.30;99.90;;;;;;5062002;28;20033;-58
2023/06/23 08:49:45;;;;;;;13.43;9.70;;;21.30;99.90;;;;;;5064241;28;20082;-58
2023/06/23 08:52:11;;;;;;;14.65;8.80;;;21.30;99.90;;;;;;5064763;28;20060;-58
2023/06/23 08:54:37;;;;;;;11.80;9.43;;;21.40;99.90;;;;;;5069165;28;20510;-58
2023/06/23 08:57:04;;;;;;;11.07;9.45;;;21.30;99.90;;;;;;5067066;28;20067;-58
2023/06/23 08:59:30;;;;;;;11.00;7.30;;;21.40;99.90;;;;;;5068482;28;20690;-58
2023/06/23 09:01:56;;;;;;;11.73;8.73;;;21.40;99.90;;;;;;5063189;28;20033;-58
2023/06/23 09:04:21;;;;;;;13.65;10.27;;;21.40;99.90;;;;;;5061879;28;20405;-58
2023/06/23 09:06:47;;;;;;;12.88;9.80;;;21.60;99.90;;;;;;5067595;28;20036;-58
2023/06/23 09:09:13;;;;;;;10.90;9.02;;;21.80;99.90;;;;;;5064096;28;20037;-58
2023/06/23 09:11:39;;;;;;;10.60;8.00;;;21.70;99.90;;;;;;5064074;28;20028;-58
2023/06/23 09:14:06;;;;;;;9.25;6.97;;;21.50;99.90;;;;;;5062854;28;20040;-58
2023/06/23 09:16:32;;;;;;;10.60;8.55;;;21.70;99.90;;;;;;5064794;28;20484;-58
2023/06/23 09:19:00;;;;;;;11.63;9.13;;;21.70;99.90;;;;;;5066719;28;20081;-58
2023/06/23 09:21:26;;;;;;;13.75;9.70;;;21.60;99.90;;;;;;5068299;28;20723;-57
2023/06/23 09:24:04;;;;;;;9.65;8.52;;;21.70;99.90;;;;;;5063792;28;20024;-58
2023/06/23 09:26:52;;;;;;;11.20;8.15;;;21.80;99.90;;;;;;5071216;28;20036;-58
2023/06/23 09:29:21;;;;;;;16.40;9.77;;;21.70;99.90;;;;;;5068314;28;20043;-58
2023/06/23 09:31:49;;;;;;;12.82;8.60;;;21.80;99.90;;;;;;5067519;28;20488;-58
2023/06/23 09:34:26;;;;;;;12.48;9.10;;;22.00;99.90;;;;;;5064719;28;20514;-58
2023/06/23 09:36:53;;;;;;;12.45;8.35;;;22.00;99.90;;;;;;5064538;28;20047;-58
2023/06/23 09:39:19;;;;;;;11.65;8.73;;;22.00;99.90;;;;;;5064436;28;20032;-58
2023/06/23 09:41:56;;;;;;;9.73;7.57;;;22.00;99.90;;;;;;5067176;28;20083;-58
2023/06/23 09:44:30;;;;;;;10.52;8.00;;;22.10;99.90;;;;;;5069298;28;20763;-58
2023/06/23 09:47:04;;;;;;;12.57;8.95;;;22.40;99.90;;;;;;5061987;28;20033;-57
2023/06/23 09:49:40;;;;;;;10.50;8.82;;;22.50;99.90;;;;;;5070534;28;20082;-58
2023/06/23 09:52:07;;;;;;;13.40;7.63;;;22.40;99.90;;;;;;5062976;28;20078;-57
2023/06/23 09:54:39;;;;;;;8.85;7.70;;;22.40;99.90;;;;;;5069361;28;20060;-58
2023/06/23 09:57:12;;;;;;;8.63;6.22;;;22.30;99.90;;;;;;5062287;28;20028;-58
2023/06/23 09:59:39;;;;;;;9.18;7.53;;;22.20;99.90;;;;;;5069692;28;20047;-58
2023/06/23 10:02:09;;;;;;;11.73;7.55;;;22.30;99.90;;;;;;5063621;28;20033;-58
2023/06/23 10:04:36;;;;;;;10.65;7.53;;;22.40;99.90;;;;;;5063796;28;20029;-59
2023/06/23 10:07:31;;;;;;;13.20;8.10;;;22.20;99.90;;;;;;5065074;28;20052;-59
2023/06/23 10:10:09;;;;;;;10.32;7.78;;;22.30;99.90;;;;;;5058098;28;20032;-58
2023/06/23 10:12:38;;;;;;;8.60;6.20;;;22.50;99.90;;;;;;5070669;28;20047;-58
2023/06/23 10:15:05;;;;;;;9.27;4.88;;;22.50;99.90;;;;;;5066158;28;20075;-58
2023/06/23 10:17:31;;;;;;;7.45;5.40;;;22.50;99.90;;;;;;5066795;28;20036;-59
2023/06/23 10:19:57;;;;;;;8.00;6.15;;;22.40;99.90;;;;;;5070507;28;20147;-58
2023/06/23 10:22:23;;;;;;;8.43;5.80;;;22.50;99.90;;;;;;5065843;28;20103;-59
2023/06/23 10:24:53;;;;;;;8.95;5.15;;;22.60;99.90;;;;;;5069657;28;20127;-58
2023/06/23 10:27:26;;;;;;;6.45;5.15;;;22.70;99.90;;;;;;5066074;28;20037;-58
2023/06/23 10:29:54;;;;;;;7.97;4.97;;;22.80;99.90;;;;;;5057894;28;20496;-58
2023/06/23 10:32:22;;;;;;;6.82;4.90;;;23.00;99.90;;;;;;5061031;28;20040;-58
2023/06/23 10:34:50;;;;;;;6.88;4.40;;;23.00;99.90;;;;;;5065103;28;20032;-58
2023/06/23 10:37:18;;;;;;;6.97;4.90;;;22.90;99.90;;;;;;5053906;28;20497;-58
2023/06/23 10:39:49;;;;;;;7.45;5.30;;;23.00;99.90;;;;;;5074707;28;20032;-58
2023/06/23 10:42:16;;;;;;;7.97;4.78;;;23.00;99.90;;;;;;5064330;28;20121;-58
2023/06/23 10:44:42;;;;;;;6.55;4.80;;;23.10;99.90;;;;;;5067464;28;20035;-58
2023/06/23 10:47:09;;;;;;;6.45;4.72;;;23.10;99.90;;;;;;5073910;28;20056;-58
2023/06/23 10:49:36;;;;;;;5.10;4.20;;;23.30;99.90;;;;;;5077391;28;20468;-58
2023/06/23 10:52:03;;;;;;;6.78;3.83;;;23.30;99.90;;;;;;5066574;28;20388;-59
2023/06/23 10:54:30;;;;;;;7.18;4.30;;;23.50;99.90;;;;;;5073063;28;20444;-58
2023/06/23 10:56:56;;;;;;;7.13;4.53;;;23.40;99.90;;;;;;5072651;28;20476;-58
2023/06/23 10:59:29;;;;;;;6.82;5.18;;;23.40;99.90;;;;;;5072302;28;20039;-58
2023/06/23 11:02:04;;;;;;;6.53;4.63;;;23.30;99.90;;;;;;5075504;28;20169;-57
2023/06/23 11:04:32;;;;;;;8.10;5.28;;;23.40;99.90;;;;;;5064668;28;20098;-58
2023/06/23 11:07:08;;;;;;;7.20;4.43;;;23.40;99.90;;;;;;5071854;28;20051;-58
2023/06/23 11:10:04;;;;;;;5.45;4.80;;;23.50;99.90;;;;;;5075717;28;20036;-58
2023/06/23 11:12:38;;;;;;;5.57;4.30;;;23.60;99.90;;;;;;5075746;28;20165;-59
2023/06/23 11:15:15;;;;;;;4.97;4.38;;;23.70;99.90;;;;;;5067369;28;20549;-57
2023/06/23 11:17:48;;;;;;;5.75;4.00;;;23.60;99.90;;;;;;5072475;28;20090;-58
2023/06/23 11:20:24;;;;;;;4.70;3.78;;;23.60;99.90;;;;;;5057419;28;20032;-58
2023/06/23 11:22:54;;;;;;;7.63;5.43;;;23.90;99.90;;;;;;5069446;28;20119;-58
2023/06/23 11:25:47;;;;;;;6.60;5.28;;;23.80;99.90;;;;;;5060461;28;20040;-58
2023/06/23 11:28:37;;;;;;;7.55;4.57;;;23.70;99.90;;;;;;5060056;28;20035;-58
2023/06/23 11:31:10;;;;;;;7.63;4.65;;;23.70;99.90;;;;;;5064327;28;20040;-58
2023/06/23 11:33:43;;;;;;;5.38;4.00;;;23.80;99.90;;;;;;5064765;28;20636;-58
2023/06/23 11:36:16;;;;;;;5.30;4.35;;;23.70;99.90;;;;;;5063862;28;20485;-58
2023/06/23 11:38:44;;;;;;;5.82;4.60;;;23.70;99.90;;;;;;5067655;28;20035;-58
2023/06/23 11:41:12;;;;;;;5.65;4.85;;;23.90;99.90;;;;;;5068492;28;20029;-58
2023/06/23 11:43:38;;;;;;;8.10;4.40;;;23.80;99.90;;;;;;5068578;27;20032;-58
2023/06/23 11:46:14;;;;;;;8.13;4.80;;;23.80;99.90;;;;;;5067152;28;20102;-58
2023/06/23 11:48:41;;;;;;;5.20;4.38;;;24.30;99.90;;;;;;5064454;28;20047;-58
2023/06/23 11:51:09;;;;;;;7.60;4.40;;;24.20;99.90;;;;;;5066448;28;20032;-60
2023/06/23 11:53:35;;;;;;;6.78;4.93;;;24.20;99.90;;;;;;5065441;28;20032;-62
2023/06/23 11:56:02;;;;;;;5.45;4.72;;;24.10;99.90;;;;;;5067251;28;20036;-63
2023/06/23 11:58:30;;;;;;;7.10;4.55;;;23.90;99.90;;;;;;5067012;28;20028;-64
2023/06/23 12:00:55;;;;;;;8.10;5.28;;;23.90;99.90;;;;;;5067893;28;20332;-63
2023/06/23 12:03:21;;;;;;;4.53;3.53;;;24.00;99.90;;;;;;5072193;28;20077;-62
2023/06/23 12:05:46;;;;;;;6.30;4.20;;;24.10;99.90;;;;;;5068732;28;20056;-62
2023/06/23 12:08:13;;;;;;;11.52;4.10;;;24.10;99.90;;;;;;5067941;28;20040;-62
2023/06/23 12:10:40;;;;;;;4.82;4.20;;;24.30;99.90;;;;;;5065243;28;20039;-62
2023/06/23 12:13:10;;;;;;;8.02;4.40;;;24.30;99.90;;;;;;5062595;28;20054;-62
2023/06/23 12:15:40;;;;;;;5.63;3.95;;;24.40;99.90;;;;;;5064605;28;21074;-62
2023/06/23 12:18:06;;;;;;;4.35;3.95;;;24.50;99.90;;;;;;5066666;28;20025;-62
2023/06/23 12:20:36;;;;;;;9.65;5.43;;;24.50;99.90;;;;;;5068737;28;20507;-62
2023/06/23 12:23:03;;;;;;;5.20;4.70;;;24.40;99.90;;;;;;5062790;28;20036;-62
2023/06/23 12:25:38;;;;;;;4.38;3.97;;;24.20;99.90;;;;;;5064409;28;20032;-62
2023/06/23 12:28:05;;;;;;;5.93;4.72;;;24.40;99.90;;;;;;5062141;28;20114;-62
2023/06/23 12:30:41;;;;;;;5.85;4.47;;;24.50;99.90;;;;;;5068743;28;20039;-63
2023/06/23 12:33:20;;;;;;;5.97;4.15;;;24.50;99.90;;;;;;5066188;28;20549;-63
2023/06/23 12:36:07;;;;;;;6.72;4.85;;;24.60;99.90;;;;;;5068843;28;20028;-64
2023/06/23 12:38:34;;;;;;;5.47;4.40;;;24.80;99.90;;;;;;5065205;28;20032;-64
2023/06/23 12:41:19;;;;;;;5.80;4.88;;;24.70;99.90;;;;;;5069944;28;20033;-64
2023/06/23 12:43:47;;;;;;;5.85;4.43;;;24.20;99.90;;;;;;5066081;28;20040;-63